Tienen, Belgium
Current Conditions -  °F | °C
As of 11:25 PM on Friday 28 Nov 2014 (Local Time) from EBBE Reporting Station
Clear Clear  
Wind Chill:   Ceiling: Unl
Heat Index:   Visibility: 4mi
Dew Point:   Wind: 8mph
Humidity: 93%   Direction: 80°E
Pressure: 29.8"   Gusts: NA
Location:  50.81°N, 4.94°E
Report Text: EBBE 282225Z AUTO 08007KT 6000 NCD 04/03 Q1009 WHT
Loading
Personal Weather Stations






























Interactive Weather Map New forecast layout! Learn more

10-Day Weather Forecast

Advertisements
Track Severe Weather on mobile